Time;durP1;ratioP1;P1;durP2;ratioP2;P2;SDS_P1;SDS_P2;PMS_P1;PMS_P2;Temp;Humidity;BMP_temperature;BMP_pressure;BME280_temperature;BME280_humidity;BME280_pressure;Samples;Min_cycle;Max_cycle;Signal;HPM_P1;HPM_P2
2023/05/21 00:01:19;;;;;;;12.25;8.57;;;17.80;99.90;;;;;;5077639;28;20234;-59
2023/05/21 00:03:46;;;;;;;9.05;8.05;;;17.70;99.90;;;;;;5076982;28;20501;-59
2023/05/21 00:06:14;;;;;;;9.55;8.13;;;17.70;99.90;;;;;;5076346;28;20201;-58
2023/05/21 00:08:41;;;;;;;10.65;8.15;;;17.60;99.90;;;;;;5076508;28;20307;-60
2023/05/21 00:11:09;;;;;;;8.95;7.65;;;17.70;99.90;;;;;;5076581;28;20239;-59
2023/05/21 00:13:37;;;;;;;8.27;7.43;;;17.70;99.90;;;;;;5076594;28;20227;-59
2023/05/21 00:16:04;;;;;;;10.05;7.90;;;17.60;99.90;;;;;;5076136;28;20224;-59
2023/05/21 00:18:33;;;;;;;10.10;8.10;;;17.60;99.90;;;;;;5076152;28;20320;-59
2023/05/21 00:21:00;;;;;;;8.75;7.47;;;17.60;99.90;;;;;;5076108;28;20299;-59
2023/05/21 00:23:27;;;;;;;8.85;7.80;;;17.60;99.90;;;;;;5076509;28;20223;-59
2023/05/21 00:25:54;;;;;;;11.93;10.02;;;17.60;99.90;;;;;;5075632;28;20205;-59
2023/05/21 00:28:22;;;;;;;9.18;8.15;;;17.60;99.90;;;;;;5075607;28;20232;-59
2023/05/21 00:30:48;;;;;;;10.82;7.65;;;17.60;99.90;;;;;;5075704;28;20205;-59
2023/05/21 00:33:15;;;;;;;8.77;7.88;;;17.60;99.90;;;;;;5075471;28;20208;-60
2023/05/21 00:35:42;;;;;;;8.65;7.60;;;17.50;99.90;;;;;;5074478;28;20229;-59
2023/05/21 00:38:09;;;;;;;11.30;7.70;;;17.50;99.90;;;;;;5075206;28;20248;-58
2023/05/21 00:40:39;;;;;;;9.38;8.48;;;17.50;99.90;;;;;;5075570;28;20205;-59
2023/05/21 00:43:08;;;;;;;9.70;8.80;;;17.50;99.90;;;;;;5075310;28;20284;-59
2023/05/21 00:45:37;;;;;;;10.43;8.95;;;17.40;99.90;;;;;;5074787;28;20718;-60
2023/05/21 00:48:05;;;;;;;10.70;7.97;;;17.40;99.90;;;;;;5075220;28;20229;-60
2023/05/21 00:50:32;;;;;;;9.80;7.90;;;17.30;99.90;;;;;;5074409;28;20208;-60
2023/05/21 00:53:00;;;;;;;7.65;6.95;;;17.30;99.90;;;;;;5075198;28;20205;-58
2023/05/21 00:55:26;;;;;;;8.25;7.47;;;17.30;99.90;;;;;;5074945;28;20255;-59
2023/05/21 00:57:54;;;;;;;10.45;7.20;;;17.30;99.90;;;;;;5075192;28;20242;-60
2023/05/21 01:00:23;;;;;;;8.55;7.75;;;17.20;99.90;;;;;;5075965;28;20292;-59
2023/05/21 01:02:51;;;;;;;9.35;7.93;;;17.20;99.90;;;;;;5074734;28;20211;-60
2023/05/21 01:05:20;;;;;;;8.40;7.60;;;17.20;99.90;;;;;;5074767;28;20197;-60
2023/05/21 01:07:48;;;;;;;8.75;7.60;;;17.20;99.90;;;;;;5074743;28;20279;-60
2023/05/21 01:10:14;;;;;;;10.32;9.02;;;17.20;99.90;;;;;;5074904;28;20700;-60
2023/05/21 01:12:43;;;;;;;8.80;7.90;;;17.20;99.90;;;;;;5074705;28;20224;-59
2023/05/21 01:15:11;;;;;;;9.73;8.15;;;17.20;99.90;;;;;;5074451;28;20712;-59
2023/05/21 01:17:40;;;;;;;8.93;7.97;;;17.20;99.90;;;;;;5075518;28;20233;-59
2023/05/21 01:20:10;;;;;;;9.57;8.05;;;17.20;99.90;;;;;;5076148;28;20250;-59
2023/05/21 01:22:42;;;;;;;10.60;7.90;;;17.20;99.90;;;;;;5076731;28;20642;-59
2023/05/21 01:25:10;;;;;;;10.45;8.50;;;17.10;99.90;;;;;;5075529;28;20684;-60
2023/05/21 01:27:37;;;;;;;10.27;9.13;;;17.10;99.90;;;;;;5075625;28;20231;-59
2023/05/21 01:30:05;;;;;;;10.25;9.20;;;17.10;99.90;;;;;;5074391;28;20677;-60
2023/05/21 01:32:38;;;;;;;13.07;9.20;;;17.10;99.90;;;;;;5075049;28;20204;-60
2023/05/21 01:35:09;;;;;;;10.32;9.23;;;17.10;99.90;;;;;;5074360;28;20221;-60
2023/05/21 01:37:40;;;;;;;10.68;9.18;;;17.00;99.90;;;;;;5074444;28;20597;-59
2023/05/21 01:40:15;;;;;;;12.07;9.18;;;17.00;99.90;;;;;;5074897;28;20205;-59
2023/05/21 01:42:44;;;;;;;11.48;9.25;;;17.00;99.90;;;;;;5074054;28;20200;-59
2023/05/21 01:45:14;;;;;;;11.13;9.27;;;16.90;99.90;;;;;;5073665;28;20205;-60
2023/05/21 01:47:44;;;;;;;10.95;9.20;;;16.90;99.90;;;;;;5075347;28;20599;-60
2023/05/21 01:50:11;;;;;;;11.50;9.32;;;16.90;99.90;;;;;;5076783;28;20208;-60
2023/05/21 01:52:38;;;;;;;9.98;8.50;;;16.80;99.90;;;;;;5077220;28;20236;-60
2023/05/21 01:55:07;;;;;;;9.63;8.63;;;16.80;99.90;;;;;;5075973;28;20236;-60
2023/05/21 01:57:35;;;;;;;11.85;9.65;;;16.80;99.90;;;;;;5075785;28;20604;-58
2023/05/21 02:00:03;;;;;;;10.23;8.73;;;16.80;99.90;;;;;;5075754;28;20201;-59
2023/05/21 02:02:31;;;;;;;10.65;8.85;;;16.70;99.90;;;;;;5076776;28;20673;-59
2023/05/21 02:04:58;;;;;;;11.13;8.73;;;16.70;99.90;;;;;;5079194;28;20239;-59
2023/05/21 02:07:27;;;;;;;10.60;8.60;;;16.70;99.90;;;;;;5080716;28;20290;-59
2023/05/21 02:09:54;;;;;;;9.88;8.88;;;16.60;99.90;;;;;;5080488;28;20233;-59
2023/05/21 02:12:21;;;;;;;11.50;9.23;;;16.60;99.90;;;;;;5079757;28;20262;-60
2023/05/21 02:14:49;;;;;;;9.85;8.85;;;16.50;99.90;;;;;;5080220;28;20235;-59
2023/05/21 02:17:17;;;;;;;10.73;9.27;;;16.40;99.90;;;;;;5079729;28;20225;-59
2023/05/21 02:19:44;;;;;;;11.43;9.05;;;16.30;99.90;;;;;;5079170;28;20291;-59
2023/05/21 02:22:11;;;;;;;11.80;8.95;;;16.30;99.90;;;;;;5078979;28;20598;-59
2023/05/21 02:24:38;;;;;;;12.17;8.70;;;16.30;99.90;;;;;;5079955;28;20205;-60
2023/05/21 02:27:06;;;;;;;10.60;8.60;;;16.30;99.90;;;;;;5080227;28;20266;-59
2023/05/21 02:29:33;;;;;;;10.63;8.98;;;16.20;99.90;;;;;;5079964;28;20212;-60
2023/05/21 02:32:01;;;;;;;9.65;8.63;;;16.20;99.90;;;;;;5079389;28;20205;-60
2023/05/21 02:34:29;;;;;;;10.20;8.13;;;16.20;99.90;;;;;;5077989;28;20212;-60
2023/05/21 02:36:57;;;;;;;9.40;8.40;;;16.20;99.90;;;;;;5078963;28;20811;-60
2023/05/21 02:39:25;;;;;;;10.25;8.63;;;16.10;99.90;;;;;;5079083;28;20200;-60
2023/05/21 02:41:51;;;;;;;9.60;8.57;;;16.00;99.90;;;;;;5078710;28;20209;-60
2023/05/21 02:44:19;;;;;;;12.03;9.00;;;16.00;99.90;;;;;;5078433;28;20217;-61
2023/05/21 02:46:46;;;;;;;10.90;8.20;;;15.90;99.90;;;;;;5077949;28;20236;-59
2023/05/21 02:49:14;;;;;;;14.17;8.83;;;15.80;99.90;;;;;;5078801;28;20724;-58
2023/05/21 02:51:41;;;;;;;10.37;9.03;;;15.70;99.90;;;;;;5078592;28;20209;-59
2023/05/21 02:54:08;;;;;;;11.00;8.63;;;15.70;99.90;;;;;;5078347;28;20296;-59
2023/05/21 02:56:35;;;;;;;9.48;8.32;;;15.70;99.90;;;;;;5077770;28;20220;-58
2023/05/21 02:59:01;;;;;;;9.60;8.60;;;15.70;99.90;;;;;;5078155;28;20205;-59
2023/05/21 03:01:28;;;;;;;9.80;8.80;;;15.80;99.90;;;;;;5078454;28;20205;-60
2023/05/21 03:03:55;;;;;;;10.00;8.60;;;15.80;99.90;;;;;;5078034;28;20205;-59
2023/05/21 03:06:23;;;;;;;10.10;8.98;;;15.80;99.90;;;;;;5077507;28;20201;-59
2023/05/21 03:08:50;;;;;;;10.63;8.63;;;15.90;99.90;;;;;;5077956;28;20225;-58
2023/05/21 03:11:18;;;;;;;9.60;8.33;;;15.80;99.90;;;;;;5077615;28;20205;-59
2023/05/21 03:13:45;;;;;;;12.35;9.20;;;15.80;99.90;;;;;;5077921;28;20205;-61
2023/05/21 03:16:12;;;;;;;12.80;9.10;;;15.80;99.90;;;;;;5078009;28;20221;-58
2023/05/21 03:18:39;;;;;;;11.97;9.03;;;15.70;99.90;;;;;;5078549;28;20242;-59
2023/05/21 03:21:06;;;;;;;9.25;8.32;;;15.70;99.90;;;;;;5076994;28;20228;-59
2023/05/21 03:23:34;;;;;;;9.80;8.77;;;15.70;99.90;;;;;;5076392;28;20205;-59
2023/05/21 03:26:01;;;;;;;11.10;8.93;;;15.70;99.90;;;;;;5076513;28;20672;-59
2023/05/21 03:28:28;;;;;;;10.10;9.00;;;15.60;99.90;;;;;;5076142;28;20217;-59
2023/05/21 03:30:55;;;;;;;9.80;8.67;;;15.60;99.90;;;;;;5076749;28;20291;-59
2023/05/21 03:33:22;;;;;;;9.13;8.03;;;15.60;99.90;;;;;;5076318;28;20205;-59
2023/05/21 03:35:49;;;;;;;9.13;8.23;;;15.50;99.90;;;;;;5075826;28;20256;-59
2023/05/21 03:38:16;;;;;;;9.63;8.73;;;15.40;99.90;;;;;;5075967;28;20716;-58
2023/05/21 03:40:44;;;;;;;10.93;8.43;;;15.40;99.90;;;;;;5075810;28;20220;-59
2023/05/21 03:43:11;;;;;;;9.77;8.47;;;15.40;99.90;;;;;;5076108;28;20572;-59
2023/05/21 03:45:37;;;;;;;9.47;8.53;;;15.40;99.90;;;;;;5075652;28;20200;-61
2023/05/21 03:48:05;;;;;;;10.47;9.40;;;15.40;99.90;;;;;;5075486;28;20225;-59
2023/05/21 03:50:32;;;;;;;12.57;8.73;;;15.30;99.90;;;;;;5075205;28;20211;-59
2023/05/21 03:52:58;;;;;;;9.93;8.93;;;15.30;99.90;;;;;;5075274;28;20209;-59
2023/05/21 03:55:25;;;;;;;11.40;9.47;;;15.30;99.90;;;;;;5074809;28;20209;-58
2023/05/21 03:57:53;;;;;;;11.00;9.57;;;15.20;99.90;;;;;;5075432;28;20224;-59
2023/05/21 04:00:20;;;;;;;9.70;8.80;;;15.20;99.90;;;;;;5074759;28;20799;-59
2023/05/21 04:02:47;;;;;;;9.67;8.50;;;15.20;99.90;;;;;;5074731;28;20297;-59
2023/05/21 04:05:14;;;;;;;12.70;9.47;;;15.20;99.90;;;;;;5074807;28;20541;-59
2023/05/21 04:07:41;;;;;;;10.13;9.03;;;15.20;99.90;;;;;;5074847;28;20221;-60
2023/05/21 04:10:09;;;;;;;10.93;9.60;;;15.20;99.90;;;;;;5074513;28;20213;-59
2023/05/21 04:12:35;;;;;;;11.87;9.60;;;15.20;99.90;;;;;;5074790;28;20205;-58
2023/05/21 04:15:04;;;;;;;9.43;8.53;;;15.20;99.90;;;;;;5074901;28;20212;-60
2023/05/21 04:17:32;;;;;;;10.83;9.43;;;15.30;99.90;;;;;;5074380;28;20256;-59
2023/05/21 04:19:58;;;;;;;10.10;9.03;;;15.20;99.90;;;;;;5074558;28;20209;-60
2023/05/21 04:22:25;;;;;;;10.47;9.37;;;15.30;99.90;;;;;;5074495;28;20212;-59
2023/05/21 04:24:53;;;;;;;14.20;9.97;;;15.30;99.90;;;;;;5074029;28;20209;-58
2023/05/21 04:27:22;;;;;;;10.73;9.13;;;15.30;99.90;;;;;;5073854;28;20220;-59
2023/05/21 04:29:49;;;;;;;10.80;8.80;;;15.30;99.90;;;;;;5074638;28;20262;-59
2023/05/21 04:32:17;;;;;;;10.07;9.07;;;15.40;99.90;;;;;;5074827;28;20216;-59
2023/05/21 04:34:44;;;;;;;11.25;8.73;;;15.50;99.90;;;;;;5074456;28;20691;-59
2023/05/21 04:37:11;;;;;;;9.97;8.97;;;15.50;99.90;;;;;;5074364;28;20229;-60
2023/05/21 04:39:39;;;;;;;10.77;9.60;;;15.60;99.90;;;;;;5074147;28;20216;-59
2023/05/21 04:42:09;;;;;;;10.30;9.23;;;15.70;99.90;;;;;;5074806;28;20215;-58
2023/05/21 04:44:36;;;;;;;9.87;8.87;;;15.70;99.90;;;;;;5074409;28;20208;-59
2023/05/21 04:47:03;;;;;;;10.80;9.40;;;15.70;99.90;;;;;;5074609;28;20591;-60
2023/05/21 04:49:33;;;;;;;11.45;9.40;;;15.80;99.90;;;;;;5074326;28;20201;-58
2023/05/21 04:52:00;;;;;;;10.38;8.88;;;15.80;99.90;;;;;;5074620;28;20205;-59
2023/05/21 04:54:27;;;;;;;10.47;9.43;;;15.90;99.90;;;;;;5074400;28;20211;-60
2023/05/21 04:56:54;;;;;;;11.50;8.80;;;15.90;99.90;;;;;;5074691;28;20270;-59
2023/05/21 04:59:21;;;;;;;10.10;9.10;;;16.00;99.90;;;;;;5074113;28;20263;-59
2023/05/21 05:01:48;;;;;;;10.00;9.00;;;15.90;99.90;;;;;;5074275;28;20208;-61
2023/05/21 05:04:15;;;;;;;9.70;8.63;;;16.10;99.90;;;;;;5074232;28;20685;-59
2023/05/21 05:06:43;;;;;;;9.53;8.63;;;16.10;99.90;;;;;;5072699;28;20204;-57
2023/05/21 05:09:09;;;;;;;10.52;9.20;;;16.20;99.90;;;;;;5072661;28;20258;-57
2023/05/21 05:11:36;;;;;;;12.87;10.10;;;16.30;99.90;;;;;;5072674;28;20215;-55
2023/05/21 05:14:03;;;;;;;9.93;8.93;;;16.40;99.90;;;;;;5072705;28;20212;-57
2023/05/21 05:16:29;;;;;;;10.52;9.43;;;16.50;99.90;;;;;;5072345;28;20220;-58
2023/05/21 05:18:56;;;;;;;11.07;9.73;;;16.70;99.90;;;;;;5072576;28;20217;-56
2023/05/21 05:21:23;;;;;;;9.63;8.65;;;16.80;99.90;;;;;;5072950;28;20591;-56
2023/05/21 05:23:51;;;;;;;9.70;8.70;;;16.90;99.90;;;;;;5072530;28;20299;-58
2023/05/21 05:26:18;;;;;;;9.13;8.02;;;17.10;99.90;;;;;;5071984;28;20258;-56
2023/05/21 05:28:45;;;;;;;9.40;8.48;;;17.20;99.90;;;;;;5072148;28;20235;-57
2023/05/21 05:31:12;;;;;;;11.57;8.48;;;17.30;99.90;;;;;;5072443;28;20269;-58
2023/05/21 05:33:39;;;;;;;10.98;8.07;;;17.50;99.90;;;;;;5072438;28;20204;-56
2023/05/21 05:36:07;;;;;;;8.52;7.72;;;17.60;99.90;;;;;;5073115;28;20342;-59
2023/05/21 05:38:34;;;;;;;9.15;8.23;;;17.80;99.90;;;;;;5075980;28;20597;-55
2023/05/21 05:41:02;;;;;;;8.52;7.65;;;18.00;99.90;;;;;;5077021;28;20262;-55
2023/05/21 05:43:29;;;;;;;10.38;8.35;;;18.20;99.90;;;;;;5076752;28;20633;-56
2023/05/21 05:45:56;;;;;;;9.60;8.07;;;18.40;99.90;;;;;;5076315;28;20213;-57
2023/05/21 05:48:23;;;;;;;10.07;8.38;;;18.70;99.90;;;;;;5076569;28;20239;-57
2023/05/21 05:50:53;;;;;;;10.60;7.90;;;19.00;99.90;;;;;;5076843;28;20209;-56
2023/05/21 05:53:20;;;;;;;9.90;8.93;;;19.30;99.90;;;;;;5076941;28;20209;-57
2023/05/21 05:55:47;;;;;;;14.10;10.68;;;19.50;99.90;;;;;;5076339;28;20266;-58
2023/05/21 05:58:15;;;;;;;12.70;10.52;;;19.40;99.90;;;;;;5076790;28;20237;-57
2023/05/21 06:00:42;;;;;;;12.10;10.85;;;19.60;99.90;;;;;;5076770;28;20201;-56
2023/05/21 06:03:08;;;;;;;11.95;10.73;;;19.90;99.90;;;;;;5076394;28;20212;-56
2023/05/21 06:05:35;;;;;;;12.15;10.88;;;20.00;99.90;;;;;;5077453;28;20291;-57
2023/05/21 06:08:02;;;;;;;11.23;10.02;;;19.90;99.90;;;;;;5077354;28;20232;-56
2023/05/21 06:10:29;;;;;;;12.50;10.80;;;19.90;99.90;;;;;;5077833;28;20211;-55
2023/05/21 06:12:55;;;;;;;11.90;10.00;;;19.70;99.90;;;;;;5078103;28;20217;-57
2023/05/21 06:15:23;;;;;;;15.00;11.15;;;19.90;99.90;;;;;;5078023;28;20213;-57
2023/05/21 06:17:50;;;;;;;11.20;10.10;;;20.20;99.90;;;;;;5077568;28;20229;-57
2023/05/21 06:20:17;;;;;;;17.02;10.90;;;20.60;99.90;;;;;;5077543;28;20209;-56
2023/05/21 06:22:44;;;;;;;13.63;10.90;;;21.30;99.90;;;;;;5077631;28;20205;-56
2023/05/21 06:25:11;;;;;;;17.08;10.50;;;22.10;99.90;;;;;;5077029;28;20209;-56
2023/05/21 06:27:38;;;;;;;11.90;10.68;;;22.90;99.90;;;;;;5077116;28;20225;-58
2023/05/21 06:30:06;;;;;;;10.55;9.50;;;23.80;99.90;;;;;;5076247;28;20207;-56
2023/05/21 06:32:34;;;;;;;11.20;10.00;;;24.70;99.90;;;;;;5076865;28;20209;-56
2023/05/21 06:35:01;;;;;;;11.38;9.82;;;24.90;99.90;;;;;;5076225;28;20231;-56
2023/05/21 06:37:27;;;;;;;13.50;10.27;;;24.70;99.90;;;;;;5075620;28;20455;-54
2023/05/21 06:39:54;;;;;;;11.65;9.75;;;24.80;99.90;;;;;;5075544;28;20239;-56
2023/05/21 06:42:21;;;;;;;10.13;8.90;;;26.10;99.90;;;;;;5075232;28;20204;-56
2023/05/21 06:44:47;;;;;;;9.55;8.65;;;27.80;99.90;;;;;;5075267;28;20633;-56
2023/05/21 06:47:14;;;;;;;10.13;8.18;;;29.40;99.90;;;;;;5075159;28;20723;-57
2023/05/21 06:49:42;;;;;;;8.57;7.68;;;30.30;99.00;;;;;;5074465;28;20208;-56
2023/05/21 06:52:10;;;;;;;8.25;7.40;;;30.70;97.50;;;;;;5075609;28;20209;-56
2023/05/21 06:54:37;;;;;;;8.40;7.35;;;31.40;95.80;;;;;;5075151;28;20213;-57
2023/05/21 06:57:03;;;;;;;9.10;7.15;;;32.40;93.30;;;;;;5074840;28;20229;-57
2023/05/21 06:59:30;;;;;;;7.28;6.25;;;33.60;89.60;;;;;;5075297;28;20205;-57
2023/05/21 07:01:57;;;;;;;6.40;5.90;;;34.50;81.90;;;;;;5074789;28;20213;-57
2023/05/21 07:04:24;;;;;;;6.93;5.95;;;35.30;77.40;;;;;;5074973;28;20212;-57
2023/05/21 07:06:52;;;;;;;7.25;6.03;;;36.10;72.90;;;;;;5074565;28;20216;-58
2023/05/21 07:09:19;;;;;;;6.70;6.05;;;36.50;70.20;;;;;;5074884;28;20220;-58
2023/05/21 07:11:45;;;;;;;7.55;5.72;;;36.30;67.70;;;;;;5074904;28;20684;-57
2023/05/21 07:14:12;;;;;;;6.25;5.68;;;36.00;67.50;;;;;;5074950;28;20516;-57
2023/05/21 07:16:39;;;;;;;7.18;6.10;;;35.70;66.40;;;;;;5074119;28;20288;-57
2023/05/21 07:19:06;;;;;;;7.28;5.53;;;35.20;66.80;;;;;;5103428;22;20236;-60
2023/05/21 07:21:32;;;;;;;7.25;5.55;;;34.60;66.50;;;;;;5087350;28;20532;-61
2023/05/21 07:24:00;;;;;;;6.43;5.63;;;34.10;67.60;;;;;;5093779;28;20212;-61
2023/05/21 07:26:27;;;;;;;6.93;5.40;;;33.60;67.60;;;;;;5093510;28;20204;-61
2023/05/21 07:28:54;;;;;;;7.30;6.20;;;32.90;69.80;;;;;;5093907;28;20220;-61
2023/05/21 07:31:20;;;;;;;10.68;9.30;;;32.40;70.80;;;;;;5093918;28;20723;-61
2023/05/21 07:33:47;;;;;;;9.05;7.65;;;32.20;70.70;;;;;;5093730;28;20200;-62
2023/05/21 07:36:14;;;;;;;8.38;5.90;;;31.80;72.00;;;;;;5093306;28;20212;-61
2023/05/21 07:38:40;;;;;;;8.93;5.47;;;31.70;71.80;;;;;;5093310;28;20250;-62
2023/05/21 07:41:08;;;;;;;8.63;5.57;;;32.00;71.40;;;;;;5093681;28;20215;-62
2023/05/21 07:43:35;;;;;;;6.93;5.40;;;32.30;70.20;;;;;;5093495;28;20724;-63
2023/05/21 07:46:02;;;;;;;5.97;5.20;;;32.80;69.30;;;;;;5093285;28;20212;-62
2023/05/21 07:48:29;;;;;;;9.95;5.97;;;32.60;68.40;;;;;;5093298;28;20231;-60
2023/05/21 07:50:56;;;;;;;5.45;4.95;;;32.20;68.90;;;;;;5093227;28;20629;-61
2023/05/21 07:53:23;;;;;;;6.47;5.15;;;32.00;69.40;;;;;;5093055;28;20212;-60
2023/05/21 07:55:50;;;;;;;6.32;4.90;;;31.80;70.40;;;;;;5092746;28;20684;-61
2023/05/21 07:58:19;;;;;;;8.15;5.05;;;31.90;69.90;;;;;;5093086;28;20224;-61
2023/05/21 08:00:47;;;;;;;6.57;5.32;;;32.10;68.70;;;;;;5093011;28;20679;-61
2023/05/21 08:03:15;;;;;;;6.65;4.93;;;32.50;68.20;;;;;;5093237;28;20204;-61
2023/05/21 08:05:43;;;;;;;5.90;5.13;;;32.70;66.60;;;;;;5092615;28;20243;-61
2023/05/21 08:08:10;;;;;;;6.25;5.50;;;32.80;66.40;;;;;;5092810;28;20220;-61
2023/05/21 08:10:37;;;;;;;5.93;5.32;;;32.80;65.70;;;;;;5093205;28;20249;-62
2023/05/21 08:13:04;;;;;;;9.52;4.85;;;33.00;65.80;;;;;;5093478;28;20295;-62
2023/05/21 08:15:32;;;;;;;5.78;5.18;;;33.30;65.20;;;;;;5092774;28;20227;-61
2023/05/21 08:17:58;;;;;;;5.97;5.13;;;33.60;64.00;;;;;;5092615;28;20285;-61
2023/05/21 08:20:26;;;;;;;5.90;5.00;;;33.80;63.60;;;;;;5092892;28;20208;-61
2023/05/21 08:22:53;;;;;;;5.90;5.03;;;34.00;62.40;;;;;;5093067;28;20299;-60
2023/05/21 08:25:20;;;;;;;5.85;5.35;;;33.70;62.60;;;;;;5092526;28;20559;-61
2023/05/21 08:27:47;;;;;;;7.32;6.65;;;33.30;62.50;;;;;;5092753;28;20231;-61
2023/05/21 08:30:14;;;;;;;6.78;6.07;;;32.20;65.00;;;;;;5092765;28;20265;-62
2023/05/21 08:32:42;;;;;;;5.75;5.15;;;31.60;65.70;;;;;;5092829;28;20207;-62
2023/05/21 08:35:09;;;;;;;6.88;5.85;;;31.30;66.60;;;;;;5092393;28;20204;-61
2023/05/21 08:37:36;;;;;;;7.90;5.57;;;31.20;66.90;;;;;;5092589;28;20227;-61
2023/05/21 08:40:04;;;;;;;6.15;5.55;;;31.10;67.30;;;;;;5092918;28;20215;-62
2023/05/21 08:42:39;;;;;;;6.63;5.55;;;30.90;67.50;;;;;;5092406;28;20672;-61
2023/05/21 08:45:07;;;;;;;7.90;6.10;;;30.40;69.00;;;;;;5092001;28;20204;-61
2023/05/21 08:47:35;;;;;;;6.30;5.65;;;30.20;70.00;;;;;;5092127;28;20707;-60
2023/05/21 08:50:04;;;;;;;8.13;5.63;;;30.10;70.10;;;;;;5092407;28;20215;-60
2023/05/21 08:52:31;;;;;;;6.13;5.18;;;29.90;70.30;;;;;;5092399;28;20208;-61
2023/05/21 08:54:59;;;;;;;7.38;5.80;;;29.70;71.00;;;;;;5092161;28;20214;-61
2023/05/21 08:57:27;;;;;;;6.93;5.55;;;29.70;71.40;;;;;;5092101;28;20228;-61
2023/05/21 08:59:54;;;;;;;6.63;5.70;;;29.70;71.70;;;;;;5092462;28;20199;-61
2023/05/21 09:02:23;;;;;;;6.13;5.53;;;29.60;72.20;;;;;;5092024;28;20261;-61
2023/05/21 09:04:55;;;;;;;6.03;5.43;;;29.30;72.50;;;;;;5092050;28;20208;-61
2023/05/21 09:07:26;;;;;;;7.43;5.93;;;29.20;72.80;;;;;;5091809;28;20307;-61
2023/05/21 09:09:55;;;;;;;10.82;5.70;;;29.00;73.30;;;;;;5092182;28;20204;-61
2023/05/21 09:12:23;;;;;;;7.03;5.88;;;29.00;73.30;;;;;;5091539;28;20243;-61
2023/05/21 09:14:50;;;;;;;6.88;5.75;;;29.10;73.30;;;;;;5091874;28;20287;-61
2023/05/21 09:17:19;;;;;;;6.97;5.28;;;29.10;73.00;;;;;;5091605;28;20227;-61
2023/05/21 09:20:08;;;;;;;7.20;5.40;;;29.00;73.60;;;;;;5092640;28;20352;-61
2023/05/21 09:22:36;;;;;;;5.82;5.22;;;28.90;74.00;;;;;;5092509;28;20205;-61
2023/05/21 09:25:06;;;;;;;6.18;5.53;;;28.70;75.10;;;;;;5092805;28;20204;-63
2023/05/21 09:27:33;;;;;;;5.68;5.18;;;28.40;75.80;;;;;;5093735;28;20224;-62
2023/05/21 09:30:01;;;;;;;6.45;5.72;;;28.20;76.40;;;;;;5092945;28;20286;-62
2023/05/21 09:32:28;;;;;;;6.15;5.55;;;28.40;77.20;;;;;;5092342;28;20610;-61
2023/05/21 09:34:55;;;;;;;6.90;5.32;;;28.70;76.30;;;;;;5092196;28;20592;-61
2023/05/21 09:37:22;;;;;;;5.65;5.05;;;29.10;76.20;;;;;;5092172;28;20231;-62
2023/05/21 09:39:50;;;;;;;7.47;5.45;;;29.40;74.90;;;;;;5092185;28;20228;-62
2023/05/21 09:42:20;;;;;;;6.30;4.78;;;29.60;74.10;;;;;;5092338;28;20212;-62
2023/05/21 09:44:47;;;;;;;5.88;5.35;;;29.60;74.10;;;;;;5092410;28;20212;-62
2023/05/21 09:47:20;;;;;;;7.22;6.10;;;29.60;74.50;;;;;;5091560;28;20208;-62
2023/05/21 09:49:46;;;;;;;10.93;5.90;;;29.30;74.90;;;;;;5091932;28;20228;-61
2023/05/21 09:52:13;;;;;;;6.18;5.57;;;28.90;75.90;;;;;;5091804;28;20212;-61
2023/05/21 09:54:40;;;;;;;7.43;5.82;;;28.50;76.60;;;;;;5091816;28;20200;-61
2023/05/21 09:57:08;;;;;;;6.93;5.72;;;28.30;77.20;;;;;;5091713;28;20211;-62
2023/05/21 09:59:38;;;;;;;6.03;5.10;;;28.20;77.80;;;;;;5092885;28;20232;-62
2023/05/21 10:02:16;;;;;;;8.38;5.32;;;28.10;78.10;;;;;;5092241;28;20215;-62
2023/05/21 10:04:47;;;;;;;9.25;6.35;;;28.10;77.60;;;;;;5091872;28;20238;-61
2023/05/21 10:07:16;;;;;;;6.00;5.40;;;28.10;77.30;;;;;;5091771;28;20204;-62
2023/05/21 10:09:45;;;;;;;5.72;5.10;;;28.10;77.90;;;;;;5092478;28;20215;-63
2023/05/21 10:12:13;;;;;;;6.50;5.30;;;28.10;78.20;;;;;;5092122;28;20257;-61
2023/05/21 10:14:42;;;;;;;10.48;5.68;;;28.20;78.50;;;;;;5092519;28;20204;-61
2023/05/21 10:17:10;;;;;;;6.22;5.57;;;28.50;77.70;;;;;;5093595;28;20208;-61
2023/05/21 10:19:37;;;;;;;6.22;5.28;;;28.60;77.30;;;;;;5093491;28;20232;-62
2023/05/21 10:22:04;;;;;;;6.65;4.78;;;28.60;77.80;;;;;;5092165;28;20252;-63
2023/05/21 10:24:32;;;;;;;7.38;5.50;;;28.60;77.80;;;;;;5092720;28;20201;-62
2023/05/21 10:27:02;;;;;;;7.65;4.95;;;28.60;78.00;;;;;;5095066;28;20680;-62
2023/05/21 10:29:31;;;;;;;5.65;5.00;;;28.30;78.00;;;;;;5095166;28;20656;-61
2023/05/21 10:32:00;;;;;;;9.00;5.40;;;28.20;78.60;;;;;;5095676;28;20212;-62
2023/05/21 10:34:29;;;;;;;6.95;5.30;;;28.00;78.00;;;;;;5094991;28;20702;-62
2023/05/21 10:36:57;;;;;;;5.50;4.47;;;27.90;78.70;;;;;;5094960;28;20230;-63
2023/05/21 10:39:25;;;;;;;5.93;5.32;;;27.80;79.40;;;;;;5095216;28;20609;-62
2023/05/21 10:42:01;;;;;;;7.10;5.72;;;27.70;80.20;;;;;;5096470;28;20204;-61
2023/05/21 10:44:41;;;;;;;7.40;5.50;;;27.70;80.30;;;;;;5095582;28;20735;-62
2023/05/21 10:47:33;;;;;;;6.60;6.00;;;27.80;80.30;;;;;;5096106;28;20204;-62
2023/05/21 10:50:18;;;;;;;6.57;5.38;;;27.80;80.80;;;;;;5095061;28;20228;-61
2023/05/21 10:52:58;;;;;;;5.88;5.00;;;27.70;80.60;;;;;;5096742;28;20204;-61
2023/05/21 10:55:37;;;;;;;6.68;5.70;;;27.70;81.20;;;;;;5095130;28;20290;-62
2023/05/21 10:58:31;;;;;;;11.73;10.52;;;27.80;81.30;;;;;;5095041;28;20232;-61
2023/05/21 11:01:00;;;;;;;6.28;5.68;;;28.00;80.80;;;;;;5039917;28;20208;-62
2023/05/21 11:03:28;;;;;;;6.28;5.57;;;28.30;80.50;;;;;;5094730;28;20204;-61
2023/05/21 11:05:56;;;;;;;6.43;5.45;;;28.40;80.70;;;;;;5094581;28;20675;-61
2023/05/21 11:08:24;;;;;;;9.10;5.70;;;28.50;79.80;;;;;;5094413;28;20283;-61
2023/05/21 11:10:56;;;;;;;6.10;5.50;;;28.80;79.50;;;;;;5094863;28;20208;-62
2023/05/21 11:13:24;;;;;;;6.65;5.20;;;29.00;78.60;;;;;;5094866;28;20204;-62
2023/05/21 11:16:06;;;;;;;7.28;5.43;;;29.20;78.40;;;;;;5094918;28;20204;-63
2023/05/21 11:19:03;;;;;;;5.82;5.13;;;29.30;78.30;;;;;;5094047;28;20239;-63
2023/05/21 11:21:31;;;;;;;8.07;5.20;;;29.30;78.60;;;;;;5011853;28;20245;-63
2023/05/21 11:24:03;;;;;;;6.63;5.18;;;29.40;78.30;;;;;;5075249;28;20208;-63
2023/05/21 11:26:51;;;;;;;6.25;5.13;;;29.60;77.50;;;;;;5093825;28;20204;-63
2023/05/21 11:29:18;;;;;;;4.63;4.22;;;29.80;77.00;;;;;;5093558;28;20216;-63
2023/05/21 11:31:48;;;;;;;11.52;7.93;;;29.90;75.90;;;;;;5093752;28;20606;-62
2023/05/21 11:34:15;;;;;;;6.88;5.22;;;30.10;75.40;;;;;;5093479;28;20729;-62
2023/05/21 11:36:44;;;;;;;4.97;4.47;;;30.20;75.90;;;;;;5094317;28;20623;-63
2023/05/21 11:39:14;;;;;;;6.07;4.57;;;30.10;70.90;;;;;;5093582;28;20228;-63
2023/05/21 11:41:59;;;;;;;6.25;5.60;;;30.10;70.10;;;;;;5095611;28;20204;-63
2023/05/21 11:44:38;;;;;;;11.23;7.10;;;29.80;72.30;;;;;;5096650;28;20208;-64
2023/05/21 11:47:08;;;;;;;6.57;5.90;;;29.90;74.30;;;;;;5097049;28;20664;-65
2023/05/21 11:49:35;;;;;;;6.93;5.82;;;30.00;75.70;;;;;;5096161;28;20642;-62
2023/05/21 11:52:03;;;;;;;7.78;5.20;;;30.20;75.60;;;;;;5093508;28;20208;-63
2023/05/21 11:54:34;;;;;;;6.07;5.30;;;30.30;75.40;;;;;;5093261;28;20208;-62
2023/05/21 11:57:02;;;;;;;5.30;4.80;;;30.30;75.20;;;;;;5093068;28;20208;-64
2023/05/21 11:59:28;;;;;;;8.32;5.75;;;30.30;75.00;;;;;;5093192;28;20224;-62
2023/05/21 12:01:55;;;;;;;5.32;4.75;;;30.40;74.20;;;;;;5093366;28;20204;-63
2023/05/21 12:04:23;;;;;;;7.07;4.55;;;30.50;73.80;;;;;;5093356;28;20291;-62
2023/05/21 12:06:50;;;;;;;4.95;4.45;;;30.50;72.80;;;;;;5092986;28;20200;-61
2023/05/21 12:09:17;;;;;;;5.25;4.70;;;30.50;72.90;;;;;;5093155;28;20239;-62
2023/05/21 12:11:44;;;;;;;4.68;3.90;;;30.60;70.20;;;;;;5093150;28;20204;-62
2023/05/21 12:14:11;;;;;;;4.35;3.95;;;30.40;65.60;;;;;;5093400;28;20208;-63
2023/05/21 12:16:38;;;;;;;4.97;4.07;;;30.30;64.70;;;;;;5092748;28;20586;-63
2023/05/21 12:19:05;;;;;;;5.95;4.00;;;30.10;64.90;;;;;;5092809;28;20228;-62
2023/05/21 12:21:35;;;;;;;5.82;4.50;;;30.00;66.50;;;;;;5092938;28;20214;-62
2023/05/21 12:24:02;;;;;;;5.05;4.00;;;29.90;67.00;;;;;;5093011;28;20212;-63
2023/05/21 12:26:31;;;;;;;6.30;3.78;;;30.00;65.90;;;;;;5092440;28;20204;-63
2023/05/21 12:28:58;;;;;;;4.78;4.15;;;30.10;65.90;;;;;;5092953;28;20224;-62
2023/05/21 12:31:26;;;;;;;4.60;3.78;;;30.30;65.00;;;;;;5092862;28;20204;-62
2023/05/21 12:33:53;;;;;;;4.10;3.70;;;30.30;63.60;;;;;;5092794;28;20596;-63
2023/05/21 12:36:25;;;;;;;4.50;3.88;;;30.30;61.30;;;;;;5092528;28;20578;-61
2023/05/21 12:38:55;;;;;;;4.07;3.40;;;30.20;61.70;;;;;;5092218;28;20236;-61
2023/05/21 12:41:22;;;;;;;5.93;4.13;;;30.00;61.00;;;;;;5092490;28;20622;-61
2023/05/21 12:43:50;;;;;;;4.80;3.60;;;29.90;62.00;;;;;;5092548;28;20609;-61
2023/05/21 12:46:17;;;;;;;6.93;3.70;;;29.80;62.70;;;;;;5092127;28;20282;-62
2023/05/21 12:48:49;;;;;;;6.95;3.50;;;29.90;63.00;;;;;;5091547;28;20224;-62